Ardenvoir, Washington
Current Conditions -  °F | °C
As of 1:14 AM on Friday 31 Oct 2014 (Local Time) from KEAT Reporting Station
Light Rain Light Rain  
Wind Chill: 50°   Ceiling: 4300
Heat Index: 50°   Visibility: 2mi
Dew Point: 47°   Wind: 0mph
Humidity: 89%   Direction: NA
Pressure: 29.79"   Gusts: NA
Location:  47.74°N, 120.37°W
Report Text: KEAT 310814Z AUTO 00000KT 2SM -RA BR FEW025 BKN043 OVC070 10/08 A2979 RMK AO2 P0003 T01000083
Loading
Personal Weather Stations






























Interactive Weather Map
Tropical Storm Tracking
New forecast layout! Learn more

10-Day Weather Forecast

Advertisements
Track Severe Weather on mobile